Time;durP1;ratioP1;P1;durP2;ratioP2;P2;SDS_P1;SDS_P2;PMS_P1;PMS_P2;Temp;Humidity;BMP_temperature;BMP_pressure;BME280_temperature;BME280_humidity;BME280_pressure;Samples;Min_cycle;Max_cycle;Signal;HPM_P1;HPM_P2
2023/12/26 00:01:13;;;;;;;0.40;0.40;;;12.40;99.90;;;;;;5020348;28;20022;-67
2023/12/26 00:03:38;;;;;;;0.50;0.50;;;12.30;99.90;;;;;;5022787;28;20083;-65
2023/12/26 00:06:04;;;;;;;0.43;0.43;;;12.30;99.90;;;;;;5021453;28;20627;-65
2023/12/26 00:08:31;;;;;;;0.40;0.40;;;12.40;99.90;;;;;;5023182;28;20026;-67
2023/12/26 00:10:57;;;;;;;0.50;0.50;;;12.30;99.90;;;;;;5020744;28;20022;-65
2023/12/26 00:13:22;;;;;;;0.40;0.40;;;12.30;99.90;;;;;;5024009;28;20033;-66
2023/12/26 00:15:50;;;;;;;0.50;0.50;;;12.30;99.90;;;;;;5024156;28;20092;-67
2023/12/26 00:18:16;;;;;;;0.60;0.45;;;12.30;99.90;;;;;;5023619;28;20033;-66
2023/12/26 00:20:43;;;;;;;0.85;0.57;;;12.30;99.90;;;;;;5026449;28;20513;-66
2023/12/26 00:23:09;;;;;;;0.93;0.57;;;12.30;99.90;;;;;;5016904;28;20109;-66
2023/12/26 00:25:35;;;;;;;0.70;0.65;;;12.30;99.90;;;;;;5022626;28;20066;-65
2023/12/26 00:28:00;;;;;;;1.20;0.60;;;12.30;99.90;;;;;;5023041;28;20041;-67
2023/12/26 00:30:26;;;;;;;0.50;0.50;;;12.20;99.90;;;;;;5027902;28;20029;-67
2023/12/26 00:32:52;;;;;;;1.05;0.55;;;12.20;99.90;;;;;;5027479;28;20021;-66
2023/12/26 00:35:18;;;;;;;0.47;0.47;;;12.20;99.90;;;;;;5027643;28;20120;-67
2023/12/26 00:37:44;;;;;;;0.52;0.50;;;12.20;99.90;;;;;;5026743;28;20436;-67
2023/12/26 00:40:12;;;;;;;0.50;0.50;;;12.20;99.90;;;;;;5026810;28;20026;-67
2023/12/26 00:42:39;;;;;;;0.45;0.45;;;12.20;99.90;;;;;;5026549;28;20116;-66
2023/12/26 00:45:05;;;;;;;0.60;0.60;;;12.20;99.90;;;;;;5026466;28;20022;-67
2023/12/26 00:47:30;;;;;;;0.40;0.40;;;12.20;99.90;;;;;;5027501;28;20104;-67
2023/12/26 00:49:59;;;;;;;1.08;0.52;;;12.10;99.90;;;;;;5023802;28;20104;-68
2023/12/26 00:52:25;;;;;;;0.63;0.50;;;12.10;99.90;;;;;;5028708;28;20031;-67
2023/12/26 00:54:51;;;;;;;0.40;0.40;;;12.10;99.90;;;;;;5028225;28;20026;-67
2023/12/26 00:57:17;;;;;;;0.47;0.47;;;12.10;99.90;;;;;;5027676;28;20037;-68
2023/12/26 00:59:44;;;;;;;0.50;0.50;;;12.10;99.90;;;;;;5026729;28;20045;-67
2023/12/26 01:02:09;;;;;;;0.50;0.50;;;12.10;99.90;;;;;;5027277;28;20144;-66
2023/12/26 01:04:35;;;;;;;0.38;0.38;;;12.00;99.90;;;;;;5027118;28;20021;-65
2023/12/26 01:07:01;;;;;;;0.70;0.50;;;12.10;99.90;;;;;;5029633;28;20022;-65
2023/12/26 01:09:26;;;;;;;0.50;0.50;;;12.10;99.90;;;;;;5026246;28;20399;-65
2023/12/26 01:11:52;;;;;;;0.55;0.50;;;12.00;99.90;;;;;;5026483;28;20033;-65
2023/12/26 01:14:17;;;;;;;0.43;0.43;;;12.00;99.90;;;;;;5027610;28;20019;-66
2023/12/26 01:16:45;;;;;;;1.15;0.50;;;12.00;99.90;;;;;;5028033;28;20166;-66
2023/12/26 01:19:11;;;;;;;0.50;0.50;;;12.00;99.90;;;;;;5027790;28;20060;-65
2023/12/26 01:21:37;;;;;;;1.52;0.57;;;12.00;99.90;;;;;;5027694;28;20112;-65
2023/12/26 01:24:03;;;;;;;1.27;0.80;;;12.00;99.90;;;;;;5026826;28;20574;-64
2023/12/26 01:26:30;;;;;;;1.00;0.98;;;12.00;99.90;;;;;;5027824;28;20029;-65
2023/12/26 01:28:57;;;;;;;1.25;0.68;;;12.00;99.90;;;;;;5024451;28;20390;-64
2023/12/26 01:31:22;;;;;;;2.55;0.68;;;12.00;99.90;;;;;;5027635;28;20029;-66
2023/12/26 01:33:49;;;;;;;0.75;0.75;;;12.00;99.90;;;;;;5025854;28;20113;-65
2023/12/26 01:36:15;;;;;;;0.60;0.55;;;12.00;99.90;;;;;;5028027;28;20504;-66
2023/12/26 01:38:40;;;;;;;0.65;0.65;;;12.00;99.90;;;;;;5025398;28;20036;-66
2023/12/26 01:41:06;;;;;;;2.53;0.80;;;12.00;99.90;;;;;;5028627;28;20025;-65
2023/12/26 01:43:32;;;;;;;1.05;0.60;;;12.00;99.90;;;;;;5026451;28;20029;-65
2023/12/26 01:46:02;;;;;;;0.68;0.50;;;12.00;99.90;;;;;;5026287;28;20079;-67
2023/12/26 01:48:30;;;;;;;0.65;0.65;;;12.00;99.90;;;;;;5027536;28;20124;-66
2023/12/26 01:50:57;;;;;;;2.10;0.88;;;12.00;99.90;;;;;;5023735;28;20029;-66
2023/12/26 01:53:23;;;;;;;1.05;0.70;;;12.00;99.90;;;;;;5024456;28;20044;-65
2023/12/26 01:55:48;;;;;;;0.80;0.80;;;11.90;99.90;;;;;;5025845;28;20029;-65
2023/12/26 01:58:14;;;;;;;0.60;0.60;;;11.90;99.90;;;;;;5022362;28;20139;-66
2023/12/26 02:00:40;;;;;;;0.60;0.60;;;11.90;99.90;;;;;;5022137;28;20026;-65
2023/12/26 02:03:06;;;;;;;0.60;0.60;;;11.90;99.90;;;;;;5025415;28;20021;-66
2023/12/26 02:05:31;;;;;;;0.55;0.50;;;12.00;99.90;;;;;;5025088;28;20038;-66
2023/12/26 02:07:57;;;;;;;0.90;0.57;;;12.00;99.90;;;;;;5022396;28;20029;-66
2023/12/26 02:10:23;;;;;;;0.52;0.50;;;12.00;99.90;;;;;;5023019;28;20045;-65
2023/12/26 02:12:48;;;;;;;1.02;0.70;;;11.90;99.90;;;;;;5020192;28;20030;-67
2023/12/26 02:15:14;;;;;;;0.60;0.60;;;11.90;99.90;;;;;;5027599;28;20047;-67
2023/12/26 02:17:42;;;;;;;0.40;0.40;;;12.00;99.90;;;;;;5022150;28;20034;-67
2023/12/26 02:20:08;;;;;;;2.35;0.80;;;12.00;99.90;;;;;;5023488;28;20022;-66
2023/12/26 02:22:34;;;;;;;1.30;0.43;;;12.00;99.90;;;;;;5025312;28;20021;-66
2023/12/26 02:25:00;;;;;;;0.57;0.40;;;12.10;99.90;;;;;;5019405;28;20060;-66
2023/12/26 02:27:29;;;;;;;0.60;0.60;;;12.10;99.90;;;;;;5027951;28;20053;-66
2023/12/26 02:29:56;;;;;;;1.27;0.60;;;12.10;99.90;;;;;;5030182;28;20112;-66
2023/12/26 02:32:24;;;;;;;0.60;0.60;;;12.10;99.90;;;;;;5023253;28;20199;-65
2023/12/26 02:34:54;;;;;;;0.50;0.50;;;12.10;99.90;;;;;;5025264;28;20087;-66
2023/12/26 02:37:21;;;;;;;0.60;0.52;;;12.10;99.90;;;;;;5022931;28;20021;-65
2023/12/26 02:39:49;;;;;;;0.70;0.70;;;12.10;99.90;;;;;;5024888;28;20030;-66
2023/12/26 02:42:17;;;;;;;1.73;0.70;;;12.10;99.90;;;;;;5023721;28;20096;-65
2023/12/26 02:44:42;;;;;;;1.55;0.70;;;12.10;99.90;;;;;;5029515;28;20390;-66
2023/12/26 02:47:09;;;;;;;0.55;0.50;;;12.00;99.90;;;;;;5027340;28;20018;-66
2023/12/26 02:49:34;;;;;;;1.65;0.40;;;11.80;99.90;;;;;;5023361;28;20029;-67
2023/12/26 02:52:00;;;;;;;1.42;0.60;;;11.70;99.90;;;;;;5014257;28;20034;-66
2023/12/26 02:54:26;;;;;;;0.65;0.40;;;11.60;99.90;;;;;;5022755;28;20395;-66
2023/12/26 02:56:52;;;;;;;1.48;0.50;;;11.60;99.90;;;;;;5013879;28;20036;-64
2023/12/26 02:59:18;;;;;;;0.60;0.40;;;11.50;99.90;;;;;;5019762;28;20029;-66
2023/12/26 03:01:50;;;;;;;0.95;0.40;;;11.40;99.90;;;;;;5025923;28;20419;-66
2023/12/26 03:04:16;;;;;;;0.90;0.50;;;11.40;99.90;;;;;;5028127;28;20090;-65
2023/12/26 03:06:41;;;;;;;1.23;0.50;;;11.50;99.90;;;;;;5026684;28;20484;-65
2023/12/26 03:09:08;;;;;;;0.30;0.30;;;11.40;99.90;;;;;;5016289;28;20414;-67
2023/12/26 03:11:34;;;;;;;0.90;0.50;;;11.40;99.90;;;;;;5028344;28;20092;-66
2023/12/26 03:14:01;;;;;;;0.60;0.50;;;11.40;99.90;;;;;;5024057;28;20126;-66
2023/12/26 03:16:27;;;;;;;0.80;0.50;;;11.40;99.90;;;;;;5027536;28;21092;-67
2023/12/26 03:18:53;;;;;;;0.50;0.50;;;11.50;99.90;;;;;;5024076;28;20499;-64
2023/12/26 03:21:20;;;;;;;1.00;0.57;;;11.50;99.90;;;;;;5019653;28;20021;-67
2023/12/26 03:23:46;;;;;;;0.98;0.45;;;11.60;99.90;;;;;;5024845;28;20072;-68
2023/12/26 03:26:12;;;;;;;3.05;0.60;;;11.60;99.90;;;;;;5022965;28;20022;-67
2023/12/26 03:28:37;;;;;;;1.25;0.57;;;11.60;99.90;;;;;;5018503;28;20049;-67
2023/12/26 03:31:04;;;;;;;1.73;0.60;;;11.70;99.90;;;;;;5015817;28;20073;-67
2023/12/26 03:33:30;;;;;;;1.77;0.70;;;11.70;99.90;;;;;;5029047;28;20660;-67
2023/12/26 03:35:56;;;;;;;3.05;0.80;;;11.80;99.90;;;;;;5022765;28;20030;-67
2023/12/26 03:38:21;;;;;;;1.42;0.70;;;11.80;99.90;;;;;;5024140;28;20018;-67
2023/12/26 03:40:48;;;;;;;2.08;1.23;;;11.80;99.90;;;;;;5026142;28;20026;-66
2023/12/26 03:43:13;;;;;;;0.77;0.50;;;11.90;99.90;;;;;;5021969;28;20032;-66
2023/12/26 03:45:39;;;;;;;2.00;0.80;;;11.90;99.90;;;;;;5027764;28;20403;-65
2023/12/26 03:48:05;;;;;;;2.42;0.80;;;11.80;99.90;;;;;;5022548;28;20638;-67
2023/12/26 03:50:31;;;;;;;1.42;0.80;;;11.80;99.90;;;;;;5029233;28;20026;-66
2023/12/26 03:52:57;;;;;;;3.30;1.23;;;11.80;99.90;;;;;;5020033;28;20043;-66
2023/12/26 03:55:23;;;;;;;3.13;1.20;;;11.80;99.90;;;;;;5026887;28;20030;-65
2023/12/26 03:57:48;;;;;;;2.10;0.70;;;11.80;99.90;;;;;;5021605;28;20083;-67
2023/12/26 04:00:15;;;;;;;1.33;0.70;;;11.90;99.90;;;;;;5021852;28;20018;-67
2023/12/26 04:02:41;;;;;;;1.08;0.63;;;11.80;99.90;;;;;;5025944;28;20080;-66
2023/12/26 04:05:10;;;;;;;1.88;0.80;;;11.80;99.90;;;;;;5028389;28;20025;-66
2023/12/26 04:07:36;;;;;;;1.33;0.77;;;11.80;99.90;;;;;;5025676;28;20024;-66
2023/12/26 04:10:02;;;;;;;2.15;0.88;;;11.80;99.90;;;;;;5031916;28;20029;-64
2023/12/26 04:12:28;;;;;;;2.45;1.00;;;11.70;99.90;;;;;;5022987;28;20022;-67
2023/12/26 04:14:54;;;;;;;2.08;0.77;;;11.70;99.90;;;;;;5031762;28;20438;-67
2023/12/26 04:17:21;;;;;;;1.33;0.85;;;11.70;99.90;;;;;;5025750;28;20026;-67
2023/12/26 04:19:49;;;;;;;2.33;0.88;;;11.70;99.90;;;;;;5022449;28;20119;-67
2023/12/26 04:22:15;;;;;;;1.35;0.80;;;11.70;99.90;;;;;;5028379;28;20032;-66
2023/12/26 04:24:41;;;;;;;1.25;0.60;;;11.60;99.90;;;;;;5029055;28;20033;-68
2023/12/26 04:27:07;;;;;;;1.17;0.63;;;11.60;99.90;;;;;;5020975;28;20057;-68
2023/12/26 04:29:33;;;;;;;2.75;0.80;;;11.50;99.90;;;;;;5024113;28;20389;-67
2023/12/26 04:31:58;;;;;;;2.70;0.80;;;11.50;99.90;;;;;;5025547;28;20026;-67
2023/12/26 04:34:25;;;;;;;1.73;1.08;;;11.40;99.90;;;;;;5027580;28;20048;-67
2023/12/26 04:36:51;;;;;;;2.17;0.80;;;11.40;99.90;;;;;;5030699;28;20029;-67
2023/12/26 04:39:16;;;;;;;1.85;0.70;;;11.30;99.90;;;;;;5032727;28;20037;-67
2023/12/26 04:41:42;;;;;;;1.67;0.60;;;11.30;99.90;;;;;;5033033;28;20506;-66
2023/12/26 04:44:07;;;;;;;1.92;0.60;;;11.30;99.90;;;;;;5028577;28;20057;-67
2023/12/26 04:46:33;;;;;;;1.27;0.60;;;11.20;99.90;;;;;;5025254;28;20018;-66
2023/12/26 04:48:59;;;;;;;1.85;0.70;;;11.20;99.90;;;;;;5025796;28;20084;-67
2023/12/26 04:51:28;;;;;;;3.85;0.98;;;11.10;99.90;;;;;;5022665;28;20106;-66
2023/12/26 04:53:54;;;;;;;1.55;0.80;;;11.00;99.90;;;;;;5026018;28;20025;-66
2023/12/26 04:56:20;;;;;;;2.13;1.27;;;11.00;99.90;;;;;;5026229;28;20096;-64
2023/12/26 04:58:50;;;;;;;2.65;0.75;;;11.00;99.90;;;;;;5028194;28;20044;-66
2023/12/26 05:01:17;;;;;;;1.77;0.60;;;10.90;99.90;;;;;;5018691;28;20427;-65
2023/12/26 05:03:43;;;;;;;2.67;1.23;;;10.90;99.90;;;;;;5030229;28;20032;-66
2023/12/26 05:06:09;;;;;;;1.27;0.65;;;10.90;99.90;;;;;;5026842;28;20064;-66
2023/12/26 05:08:39;;;;;;;1.80;0.70;;;10.90;99.90;;;;;;5030828;28;20052;-66
2023/12/26 05:11:06;;;;;;;1.95;0.52;;;10.90;99.90;;;;;;5028755;28;20104;-66
2023/12/26 05:13:36;;;;;;;2.53;0.60;;;10.80;99.90;;;;;;5024646;28;20061;-65
2023/12/26 05:16:03;;;;;;;0.93;0.50;;;10.80;99.90;;;;;;5031272;28;20037;-67
2023/12/26 05:18:29;;;;;;;1.17;0.70;;;10.80;99.90;;;;;;5027761;28;20026;-66
2023/12/26 05:20:54;;;;;;;1.55;0.80;;;10.70;99.90;;;;;;5026864;28;20390;-65
2023/12/26 05:23:20;;;;;;;1.90;0.57;;;10.70;99.90;;;;;;5023350;28;20026;-66
2023/12/26 05:25:46;;;;;;;1.77;0.70;;;10.60;99.90;;;;;;5023142;28;20033;-67
2023/12/26 05:28:12;;;;;;;1.73;0.70;;;10.60;99.90;;;;;;5019484;28;20516;-65
2023/12/26 05:30:37;;;;;;;1.98;0.70;;;10.60;99.90;;;;;;5028855;28;20033;-66
2023/12/26 05:33:03;;;;;;;0.75;0.60;;;10.60;99.90;;;;;;5029893;28;21298;-67
2023/12/26 05:35:29;;;;;;;1.48;0.60;;;10.60;99.90;;;;;;5026082;28;22028;-66
2023/12/26 05:37:55;;;;;;;1.70;0.70;;;10.60;99.90;;;;;;5026414;28;20130;-66
2023/12/26 05:40:20;;;;;;;1.63;0.85;;;10.60;99.90;;;;;;5023539;28;20029;-63
2023/12/26 05:42:47;;;;;;;0.75;0.55;;;10.60;99.90;;;;;;5023980;28;20057;-66
2023/12/26 05:45:13;;;;;;;3.33;0.70;;;10.60;99.90;;;;;;5025093;28;20029;-64
2023/12/26 05:47:38;;;;;;;2.22;0.77;;;10.60;99.90;;;;;;5030993;28;20429;-65
2023/12/26 05:50:05;;;;;;;2.08;0.90;;;10.60;99.90;;;;;;5026202;28;20034;-65
2023/12/26 05:52:30;;;;;;;2.50;0.80;;;10.60;99.90;;;;;;5026953;28;20476;-66
2023/12/26 05:54:56;;;;;;;3.88;0.98;;;10.60;99.90;;;;;;5024956;28;20114;-65
2023/12/26 05:57:22;;;;;;;2.45;0.80;;;10.60;99.90;;;;;;5026975;28;20104;-66
2023/12/26 05:59:47;;;;;;;1.83;0.70;;;10.50;99.90;;;;;;5020351;28;20037;-65
2023/12/26 06:02:13;;;;;;;2.53;0.65;;;10.50;99.90;;;;;;5013416;28;20106;-64
2023/12/26 06:04:39;;;;;;;2.15;0.88;;;10.40;99.90;;;;;;5030907;28;20447;-65
2023/12/26 06:07:04;;;;;;;2.15;0.70;;;10.40;99.90;;;;;;5023176;28;20030;-65
2023/12/26 06:09:30;;;;;;;0.88;0.60;;;10.40;99.90;;;;;;5014666;28;20095;-64
2023/12/26 06:11:56;;;;;;;1.83;0.70;;;10.40;99.90;;;;;;5024573;28;20025;-66
2023/12/26 06:14:24;;;;;;;2.10;0.70;;;10.30;99.90;;;;;;5023500;28;20029;-67
2023/12/26 06:16:50;;;;;;;2.75;0.85;;;10.30;99.90;;;;;;5022373;28;20069;-65
2023/12/26 06:19:15;;;;;;;0.82;0.50;;;10.20;99.90;;;;;;5028645;28;20044;-66
2023/12/26 06:21:41;;;;;;;0.98;0.70;;;10.20;99.90;;;;;;5024133;28;20040;-66
2023/12/26 06:24:08;;;;;;;3.05;0.80;;;10.20;99.90;;;;;;5019944;28;20018;-65
2023/12/26 06:26:33;;;;;;;2.97;0.80;;;10.10;99.90;;;;;;5027142;28;20570;-66
2023/12/26 06:28:59;;;;;;;1.77;0.60;;;10.10;99.90;;;;;;5023960;28;20029;-67
2023/12/26 06:31:25;;;;;;;0.88;0.60;;;10.10;99.90;;;;;;5021949;28;20502;-65
2023/12/26 06:33:51;;;;;;;5.30;0.90;;;10.10;99.90;;;;;;5025040;28;20064;-66
2023/12/26 06:36:17;;;;;;;2.20;0.70;;;10.00;99.90;;;;;;5024366;28;20024;-68
2023/12/26 06:38:43;;;;;;;1.67;0.60;;;10.00;99.90;;;;;;5027452;28;20067;-67
2023/12/26 06:41:10;;;;;;;1.05;0.50;;;10.00;99.90;;;;;;5021712;28;20487;-67
2023/12/26 06:43:36;;;;;;;1.30;0.60;;;9.90;99.90;;;;;;5023264;28;20029;-66
2023/12/26 06:46:03;;;;;;;3.17;0.70;;;9.90;99.70;;;;;;5023567;28;20018;-67
2023/12/26 06:48:29;;;;;;;1.58;0.60;;;9.80;99.80;;;;;;5020751;28;20025;-67
2023/12/26 06:50:55;;;;;;;1.15;0.68;;;9.80;99.90;;;;;;5023294;28;20033;-67
2023/12/26 06:53:20;;;;;;;1.33;0.60;;;9.80;99.90;;;;;;5019819;28;20443;-66
2023/12/26 06:55:46;;;;;;;1.25;0.70;;;9.80;99.90;;;;;;5026888;28;20113;-66
2023/12/26 06:58:11;;;;;;;5.97;0.80;;;9.80;99.90;;;;;;5024551;28;20068;-67
2023/12/26 07:00:37;;;;;;;1.73;0.80;;;9.70;99.70;;;;;;5026188;28;20034;-66
2023/12/26 07:03:03;;;;;;;1.40;0.55;;;9.70;99.60;;;;;;5029290;28;20032;-66
2023/12/26 07:05:29;;;;;;;2.58;0.70;;;9.70;99.60;;;;;;5018924;28;20026;-66
2023/12/26 07:07:55;;;;;;;1.52;0.60;;;9.70;99.60;;;;;;5022326;28;20033;-65
2023/12/26 07:10:20;;;;;;;1.58;0.65;;;9.70;99.50;;;;;;5021163;28;20049;-65
2023/12/26 07:12:46;;;;;;;2.65;0.70;;;9.60;99.50;;;;;;5025470;28;20644;-67
2023/12/26 07:15:12;;;;;;;3.55;0.77;;;9.60;99.50;;;;;;5026234;28;20029;-66
2023/12/26 07:17:37;;;;;;;0.85;0.50;;;9.60;99.30;;;;;;5021830;28;20506;-66
2023/12/26 07:20:03;;;;;;;4.00;0.80;;;9.60;99.30;;;;;;5026903;28;20041;-66
2023/12/26 07:22:29;;;;;;;1.75;0.60;;;9.60;99.30;;;;;;5018094;28;20569;-66
2023/12/26 07:24:55;;;;;;;1.45;0.70;;;9.50;99.10;;;;;;5026191;28;20524;-66
2023/12/26 07:27:20;;;;;;;1.77;0.70;;;9.50;99.10;;;;;;5027531;28;20026;-66
2023/12/26 07:29:46;;;;;;;2.65;1.08;;;9.50;99.10;;;;;;5027478;28;20115;-66
2023/12/26 07:32:12;;;;;;;1.70;0.60;;;9.50;98.90;;;;;;5024144;28;20033;-65
2023/12/26 07:34:40;;;;;;;8.13;1.02;;;9.50;99.00;;;;;;5016229;28;20096;-67
2023/12/26 07:37:07;;;;;;;1.52;0.75;;;9.40;98.90;;;;;;5017261;28;20037;-66
2023/12/26 07:39:33;;;;;;;1.73;0.70;;;9.50;98.80;;;;;;5019630;28;20072;-66
2023/12/26 07:42:00;;;;;;;1.67;0.70;;;9.40;98.70;;;;;;5022037;28;20492;-66
2023/12/26 07:44:26;;;;;;;2.38;0.75;;;9.40;98.30;;;;;;5020092;28;20032;-66
2023/12/26 07:46:52;;;;;;;5.65;1.20;;;9.40;98.40;;;;;;5019483;28;20017;-65
2023/12/26 07:49:17;;;;;;;1.77;0.80;;;9.40;98.20;;;;;;5024476;28;20567;-64
2023/12/26 07:51:45;;;;;;;2.72;0.80;;;9.30;98.30;;;;;;5025290;28;20036;-65
2023/12/26 07:54:11;;;;;;;1.42;0.70;;;9.40;98.10;;;;;;5018832;28;20037;-63
2023/12/26 07:56:36;;;;;;;2.22;0.80;;;9.30;98.10;;;;;;5025452;28;20048;-66
2023/12/26 07:59:02;;;;;;;4.70;0.90;;;9.30;98.20;;;;;;5021174;28;20025;-65
2023/12/26 08:01:28;;;;;;;2.38;0.70;;;9.30;98.10;;;;;;5021292;28;20059;-64
2023/12/26 08:03:54;;;;;;;2.50;0.60;;;9.40;98.10;;;;;;5019768;28;20030;-65
2023/12/26 08:06:22;;;;;;;1.65;0.80;;;9.30;97.70;;;;;;5016329;28;20370;-65
2023/12/26 08:08:48;;;;;;;1.00;0.70;;;9.30;97.70;;;;;;5025779;28;20029;-66
2023/12/26 08:11:13;;;;;;;1.65;0.68;;;9.30;97.50;;;;;;5024644;28;20034;-65
2023/12/26 08:13:39;;;;;;;1.50;0.75;;;9.30;97.40;;;;;;5023552;28;20026;-67
2023/12/26 08:16:05;;;;;;;3.65;0.95;;;9.40;97.50;;;;;;5020851;28;20033;-67
2023/12/26 08:18:31;;;;;;;3.60;1.20;;;9.30;97.40;;;;;;5017346;28;20026;-67
2023/12/26 08:20:57;;;;;;;3.28;0.80;;;9.40;97.30;;;;;;5025642;28;20029;-66
2023/12/26 08:23:23;;;;;;;4.45;1.20;;;9.40;97.10;;;;;;5026472;28;20053;-66
2023/12/26 08:25:48;;;;;;;2.22;0.82;;;9.50;97.10;;;;;;5024270;28;20050;-66
2023/12/26 08:28:14;;;;;;;3.33;0.93;;;9.50;97.20;;;;;;5022220;28;20479;-65
2023/12/26 08:30:40;;;;;;;2.47;0.90;;;9.50;96.60;;;;;;5020549;28;20034;-66
2023/12/26 08:33:05;;;;;;;1.88;0.60;;;9.50;96.60;;;;;;5021353;28;20104;-67
2023/12/26 08:35:31;;;;;;;3.90;0.80;;;9.50;96.40;;;;;;5026086;28;20078;-65
2023/12/26 08:37:57;;;;;;;2.70;0.65;;;9.60;96.20;;;;;;5025183;28;20025;-66
2023/12/26 08:40:23;;;;;;;1.05;0.75;;;9.60;96.20;;;;;;5017923;28;20033;-65
2023/12/26 08:42:48;;;;;;;2.78;0.70;;;9.60;96.10;;;;;;5023103;28;20018;-66
2023/12/26 08:45:14;;;;;;;1.88;0.65;;;9.60;96.20;;;;;;5025664;28;20025;-67
2023/12/26 08:47:40;;;;;;;2.50;0.70;;;9.60;96.00;;;;;;5022033;28;20029;-66
2023/12/26 08:50:06;;;;;;;1.40;0.60;;;9.60;95.80;;;;;;5028117;28;20112;-66
2023/12/26 08:52:32;;;;;;;1.75;0.90;;;9.60;95.80;;;;;;5026242;28;20036;-66
2023/12/26 08:54:57;;;;;;;1.33;0.77;;;9.60;95.60;;;;;;5023588;28;20033;-65
2023/12/26 08:57:23;;;;;;;2.33;0.80;;;9.60;95.60;;;;;;5023690;28;20025;-66
2023/12/26 08:59:48;;;;;;;2.25;0.80;;;9.60;95.60;;;;;;5026434;28;20030;-65
2023/12/26 09:02:14;;;;;;;0.57;0.57;;;9.70;95.60;;;;;;5024806;28;20107;-65
2023/12/26 09:04:40;;;;;;;1.65;0.73;;;9.70;95.50;;;;;;5026850;28;20024;-64
2023/12/26 09:07:05;;;;;;;1.40;0.68;;;9.70;95.30;;;;;;5023897;28;20037;-65
2023/12/26 09:09:31;;;;;;;3.35;0.80;;;9.70;95.30;;;;;;5025324;28;20104;-65
2023/12/26 09:11:56;;;;;;;2.20;0.73;;;9.70;95.40;;;;;;5023408;28;20037;-66
2023/12/26 09:14:23;;;;;;;2.38;0.93;;;9.70;95.30;;;;;;5027493;28;20052;-66
2023/12/26 09:16:48;;;;;;;2.90;0.80;;;9.70;95.30;;;;;;5026478;28;20516;-64
2023/12/26 09:19:14;;;;;;;1.80;0.77;;;9.70;95.20;;;;;;5025769;28;20025;-66
2023/12/26 09:21:39;;;;;;;0.90;0.60;;;9.70;95.20;;;;;;5027223;28;20087;-66
2023/12/26 09:24:05;;;;;;;2.70;1.63;;;9.70;95.20;;;;;;5026160;28;20017;-65
2023/12/26 09:26:31;;;;;;;2.15;0.80;;;9.70;95.00;;;;;;5023741;28;20030;-64
2023/12/26 09:28:57;;;;;;;1.13;0.77;;;9.70;95.40;;;;;;5024038;28;20034;-66
2023/12/26 09:31:23;;;;;;;3.50;0.80;;;9.60;95.20;;;;;;5027171;28;21171;-65
2023/12/26 09:33:48;;;;;;;2.05;1.08;;;9.60;95.20;;;;;;5022420;28;20025;-66
2023/12/26 09:36:14;;;;;;;1.50;0.90;;;9.70;95.30;;;;;;5024111;28;20029;-66
2023/12/26 09:38:42;;;;;;;1.63;0.65;;;9.70;95.30;;;;;;5023564;28;20120;-66
2023/12/26 09:41:08;;;;;;;2.60;0.90;;;9.70;95.20;;;;;;5023303;28;20028;-65
2023/12/26 09:43:35;;;;;;;1.77;0.80;;;9.70;95.10;;;;;;5024052;28;20048;-65
2023/12/26 09:46:02;;;;;;;5.20;1.20;;;9.80;95.10;;;;;;5022979;28;20030;-67
2023/12/26 09:48:30;;;;;;;5.35;1.08;;;9.80;94.90;;;;;;5028636;28;20021;-65
2023/12/26 09:50:59;;;;;;;2.85;0.90;;;9.80;94.90;;;;;;5023749;28;20091;-65
2023/12/26 09:53:26;;;;;;;3.50;0.93;;;9.90;94.90;;;;;;5018911;28;20036;-66
2023/12/26 09:55:53;;;;;;;4.82;0.90;;;9.90;94.80;;;;;;5023306;28;20044;-67
2023/12/26 09:58:21;;;;;;;1.35;0.75;;;9.90;94.80;;;;;;5027077;28;20480;-65
2023/12/26 10:00:48;;;;;;;4.18;0.80;;;10.00;94.50;;;;;;5027668;28;20091;-65
2023/12/26 10:03:14;;;;;;;4.85;1.13;;;10.00;94.60;;;;;;5024197;28;20017;-65
2023/12/26 10:05:39;;;;;;;2.63;0.80;;;10.00;94.50;;;;;;5027913;28;20041;-67
2023/12/26 10:08:05;;;;;;;3.83;0.90;;;10.00;94.40;;;;;;5025651;28;20022;-66
2023/12/26 10:10:32;;;;;;;4.65;1.27;;;10.00;94.30;;;;;;5027783;28;20112;-65
2023/12/26 10:12:58;;;;;;;2.42;0.90;;;10.00;94.30;;;;;;5026102;28;20025;-67
2023/12/26 10:15:23;;;;;;;7.25;1.20;;;10.00;94.20;;;;;;5026432;28;20025;-66
2023/12/26 10:17:51;;;;;;;5.05;1.63;;;10.00;94.00;;;;;;5024714;28;20036;-66
2023/12/26 10:20:17;;;;;;;6.88;1.48;;;10.10;93.90;;;;;;5021464;28;20084;-66
2023/12/26 10:22:44;;;;;;;2.13;0.90;;;10.10;93.90;;;;;;5026804;28;20032;-65
2023/12/26 10:25:11;;;;;;;4.80;1.02;;;10.10;93.70;;;;;;5027350;28;20479;-66
2023/12/26 10:27:38;;;;;;;3.38;1.00;;;10.10;93.60;;;;;;5027970;28;20068;-64
2023/12/26 10:30:04;;;;;;;7.70;1.08;;;10.20;93.70;;;;;;5024819;28;20108;-67
2023/12/26 10:32:31;;;;;;;5.80;1.10;;;10.20;93.60;;;;;;5025966;28;20032;-66
2023/12/26 10:35:10;;;;;;;4.25;0.85;;;10.20;93.40;;;;;;5023319;28;20415;-65
2023/12/26 10:37:36;;;;;;;3.42;0.82;;;10.30;93.30;;;;;;5024635;28;20018;-65
2023/12/26 10:40:04;;;;;;;2.58;0.90;;;10.30;93.30;;;;;;5025700;28;20037;-67
2023/12/26 10:42:31;;;;;;;6.38;1.30;;;10.30;93.00;;;;;;5022831;28;20026;-67
2023/12/26 10:45:04;;;;;;;4.05;1.20;;;10.40;93.00;;;;;;5024167;28;20018;-67
2023/12/26 10:47:31;;;;;;;3.83;1.00;;;10.40;93.00;;;;;;5025965;28;20076;-67
2023/12/26 10:50:01;;;;;;;2.60;1.00;;;10.40;93.00;;;;;;5026048;28;20055;-66
2023/12/26 10:52:27;;;;;;;2.47;1.00;;;10.40;93.00;;;;;;5023906;28;20028;-67
2023/12/26 10:54:59;;;;;;;2.35;0.93;;;10.50;92.90;;;;;;5026046;28;20025;-65
2023/12/26 10:57:25;;;;;;;2.90;0.85;;;10.50;92.80;;;;;;5022093;28;20069;-65
2023/12/26 13:51:43;;;;;;;3.00;1.20;;;10.50;90.20;;;;;;5020471;28;20032;-67
2023/12/26 13:54:10;;;;;;;3.78;0.70;;;10.50;90.10;;;;;;5019232;28;20054;-66
2023/12/26 13:56:36;;;;;;;2.35;0.70;;;10.60;90.20;;;;;;5023662;28;20029;-66
2023/12/26 13:59:02;;;;;;;2.78;0.90;;;10.60;90.20;;;;;;5011848;28;20026;-66
2023/12/26 14:01:28;;;;;;;1.35;0.65;;;10.60;90.20;;;;;;5024957;28;20018;-65
2023/12/26 14:03:55;;;;;;;2.15;0.70;;;10.60;90.10;;;;;;5018095;28;20021;-68
2023/12/26 14:06:21;;;;;;;2.42;0.60;;;10.60;90.00;;;;;;5024531;28;20036;-67
2023/12/26 14:08:51;;;;;;;2.22;0.63;;;10.60;90.00;;;;;;5027668;28;20022;-68
2023/12/26 14:11:17;;;;;;;2.35;0.85;;;10.60;90.00;;;;;;5021656;28;20041;-66
2023/12/26 14:13:43;;;;;;;1.15;0.80;;;10.60;90.00;;;;;;5016611;28;20030;-66
2023/12/26 14:16:08;;;;;;;1.02;0.70;;;10.50;90.00;;;;;;5018653;28;20037;-67
2023/12/26 14:18:35;;;;;;;3.63;0.82;;;10.60;90.10;;;;;;5017769;28;20488;-66
2023/12/26 14:21:01;;;;;;;2.30;0.82;;;10.50;90.00;;;;;;5020172;28;20487;-67
2023/12/26 14:23:28;;;;;;;1.85;0.70;;;10.60;90.10;;;;;;5021404;28;20045;-66
2023/12/26 14:25:54;;;;;;;2.30;0.70;;;10.50;90.10;;;;;;5017102;28;20063;-66
2023/12/26 14:28:19;;;;;;;0.98;0.60;;;10.50;90.00;;;;;;5024148;28;20025;-66
2023/12/26 14:30:45;;;;;;;0.85;0.52;;;10.50;90.00;;;;;;5026845;28;20143;-67
2023/12/26 14:33:19;;;;;;;0.82;0.60;;;10.50;90.00;;;;;;5027144;28;20100;-66
2023/12/26 14:35:49;;;;;;;2.05;0.60;;;10.50;90.10;;;;;;5023489;28;20083;-66
2023/12/26 14:38:16;;;;;;;3.53;0.80;;;10.50;89.80;;;;;;5026880;28;20029;-66
2023/12/26 14:40:42;;;;;;;3.00;0.70;;;10.40;89.50;;;;;;5029603;28;20032;-66
2023/12/26 14:43:08;;;;;;;1.20;0.65;;;10.40;89.70;;;;;;5025798;28;20029;-67
2023/12/26 14:45:34;;;;;;;1.17;0.63;;;10.40;89.70;;;;;;5024622;28;20017;-67
2023/12/26 14:48:00;;;;;;;2.22;0.80;;;10.40;89.50;;;;;;5023689;28;20422;-67
2023/12/26 14:50:25;;;;;;;0.73;0.55;;;10.40;89.60;;;;;;5023734;28;20105;-66
2023/12/26 14:52:51;;;;;;;3.72;0.85;;;10.40;89.70;;;;;;5025878;28;20029;-66
2023/12/26 14:55:17;;;;;;;2.35;1.38;;;10.40;89.70;;;;;;5025638;28;20029;-65
2023/12/26 14:57:43;;;;;;;1.73;0.88;;;10.40;89.70;;;;;;5020536;28;20117;-67
2023/12/26 15:00:08;;;;;;;3.20;1.40;;;10.40;89.70;;;;;;5026958;28;20450;-67
2023/12/26 15:02:37;;;;;;;2.88;0.90;;;10.40;89.60;;;;;;5022087;28;20038;-66
2023/12/26 15:05:02;;;;;;;1.98;0.73;;;10.40;89.40;;;;;;5028212;28;20037;-67
2023/12/26 15:07:28;;;;;;;1.40;0.63;;;10.40;89.40;;;;;;5024939;28;20021;-66
2023/12/26 15:09:54;;;;;;;2.53;0.60;;;10.40;89.40;;;;;;5025730;28;20071;-67
2023/12/26 15:12:19;;;;;;;1.25;0.73;;;10.40;89.60;;;;;;5025307;28;20049;-66
2023/12/26 15:14:45;;;;;;;0.90;0.80;;;10.40;89.60;;;;;;5026690;28;20057;-67
2023/12/26 15:17:12;;;;;;;1.75;0.70;;;10.40;89.50;;;;;;5025250;28;20044;-67
2023/12/26 15:19:37;;;;;;;1.77;0.80;;;10.40;89.30;;;;;;5027049;28;20124;-67
2023/12/26 15:22:03;;;;;;;1.42;0.60;;;10.30;89.50;;;;;;5026996;28;20038;-67
2023/12/26 15:24:28;;;;;;;1.58;0.73;;;10.30;88.90;;;;;;5022161;28;20021;-67
2023/12/26 15:26:54;;;;;;;3.03;0.73;;;10.20;88.90;;;;;;5026338;28;20040;-67
2023/12/26 15:29:20;;;;;;;2.22;0.80;;;10.30;89.20;;;;;;5021198;28;20164;-67
2023/12/26 15:31:46;;;;;;;2.50;0.73;;;10.20;89.10;;;;;;5023457;28;20033;-68
2023/12/26 15:34:12;;;;;;;1.67;0.70;;;10.20;89.10;;;;;;5024052;28;20096;-66
2023/12/26 15:36:37;;;;;;;0.82;0.70;;;10.20;89.10;;;;;;5025602;28;20247;-67